sensor_id;sensor_type;location;lat;lon;timestamp;P1;durP1;ratioP1;P2;durP2;ratioP2
27313;SDS011;14800;48.174;9.798;2022-10-31T00:02:05;14.15;;;8.57;;
27313;SDS011;14800;48.174;9.798;2022-10-31T00:04:31;14.13;;;9.02;;
27313;SDS011;14800;48.174;9.798;2022-10-31T00:06:56;15.20;;;9.73;;
27313;SDS011;14800;48.174;9.798;2022-10-31T00:09:22;15.25;;;11.20;;
27313;SDS011;14800;48.174;9.798;2022-10-31T00:11:47;15.07;;;11.15;;
27313;SDS011;14800;48.174;9.798;2022-10-31T00:14:13;14.07;;;10.52;;
27313;SDS011;14800;48.174;9.798;2022-10-31T00:16:39;14.88;;;9.68;;
27313;SDS011;14800;48.174;9.798;2022-10-31T00:19:07;13.00;;;9.13;;
27313;SDS011;14800;48.174;9.798;2022-10-31T00:21:32;12.73;;;8.45;;
27313;SDS011;14800;48.174;9.798;2022-10-31T00:23:59;12.63;;;8.50;;
27313;SDS011;14800;48.174;9.798;2022-10-31T00:26:26;11.80;;;8.23;;
27313;SDS011;14800;48.174;9.798;2022-10-31T00:28:53;9.48;;;7.63;;
27313;SDS011;14800;48.174;9.798;2022-10-31T00:31:19;9.90;;;7.13;;
27313;SDS011;14800;48.174;9.798;2022-10-31T00:33:45;10.57;;;7.45;;
27313;SDS011;14800;48.174;9.798;2022-10-31T00:36:12;12.05;;;7.18;;
27313;SDS011;14800;48.174;9.798;2022-10-31T00:38:39;10.68;;;7.00;;
27313;SDS011;14800;48.174;9.798;2022-10-31T00:41:05;9.60;;;7.15;;
27313;SDS011;14800;48.174;9.798;2022-10-31T00:43:31;11.38;;;7.47;;
27313;SDS011;14800;48.174;9.798;2022-10-31T00:45:56;9.32;;;7.00;;
27313;SDS011;14800;48.174;9.798;2022-10-31T00:48:22;12.60;;;8.20;;
27313;SDS011;14800;48.174;9.798;2022-10-31T00:50:47;13.15;;;8.02;;
27313;SDS011;14800;48.174;9.798;2022-10-31T00:53:13;12.13;;;8.18;;
27313;SDS011;14800;48.174;9.798;2022-10-31T00:55:38;14.68;;;8.95;;
27313;SDS011;14800;48.174;9.798;2022-10-31T00:58:04;12.00;;;8.57;;
27313;SDS011;14800;48.174;9.798;2022-10-31T01:00:29;13.20;;;8.90;;
27313;SDS011;14800;48.174;9.798;2022-10-31T01:02:55;10.25;;;7.90;;
27313;SDS011;14800;48.174;9.798;2022-10-31T01:05:21;11.43;;;8.20;;
27313;SDS011;14800;48.174;9.798;2022-10-31T01:07:46;10.30;;;8.02;;
27313;SDS011;14800;48.174;9.798;2022-10-31T01:10:12;13.02;;;8.90;;
27313;SDS011;14800;48.174;9.798;2022-10-31T01:15:04;15.13;;;9.73;;
27313;SDS011;14800;48.174;9.798;2022-10-31T01:17:31;15.70;;;10.07;;
27313;SDS011;14800;48.174;9.798;2022-10-31T01:19:56;12.65;;;9.45;;
27313;SDS011;14800;48.174;9.798;2022-10-31T01:22:22;10.65;;;8.32;;
27313;SDS011;14800;48.174;9.798;2022-10-31T01:24:47;9.98;;;7.78;;
27313;SDS011;14800;48.174;9.798;2022-10-31T01:27:13;12.45;;;7.57;;
27313;SDS011;14800;48.174;9.798;2022-10-31T01:29:38;13.38;;;7.55;;
27313;SDS011;14800;48.174;9.798;2022-10-31T01:32:04;11.35;;;7.60;;
27313;SDS011;14800;48.174;9.798;2022-10-31T01:34:30;12.93;;;8.40;;
27313;SDS011;14800;48.174;9.798;2022-10-31T01:36:55;9.77;;;8.02;;
27313;SDS011;14800;48.174;9.798;2022-10-31T01:39:21;12.15;;;7.85;;
27313;SDS011;14800;48.174;9.798;2022-10-31T01:41:48;11.50;;;8.02;;
27313;SDS011;14800;48.174;9.798;2022-10-31T01:46:51;10.90;;;7.57;;
27313;SDS011;14800;48.174;9.798;2022-10-31T01:49:30;11.38;;;7.70;;
27313;SDS011;14800;48.174;9.798;2022-10-31T01:54:38;11.05;;;8.45;;
27313;SDS011;14800;48.174;9.798;2022-10-31T01:57:07;11.35;;;8.25;;
27313;SDS011;14800;48.174;9.798;2022-10-31T01:59:36;10.93;;;7.93;;
27313;SDS011;14800;48.174;9.798;2022-10-31T02:02:07;13.02;;;8.45;;
27313;SDS011;14800;48.174;9.798;2022-10-31T02:04:33;10.35;;;7.75;;
27313;SDS011;14800;48.174;9.798;2022-10-31T02:07:03;14.50;;;8.57;;
27313;SDS011;14800;48.174;9.798;2022-10-31T02:09:33;12.98;;;8.13;;
27313;SDS011;14800;48.174;9.798;2022-10-31T02:12:00;13.07;;;8.23;;
27313;SDS011;14800;48.174;9.798;2022-10-31T02:14:28;11.00;;;8.07;;
27313;SDS011;14800;48.174;9.798;2022-10-31T02:16:55;11.10;;;8.82;;
27313;SDS011;14800;48.174;9.798;2022-10-31T02:19:24;12.88;;;7.90;;
27313;SDS011;14800;48.174;9.798;2022-10-31T02:21:56;13.00;;;8.32;;
27313;SDS011;14800;48.174;9.798;2022-10-31T02:24:40;11.80;;;7.85;;
27313;SDS011;14800;48.174;9.798;2022-10-31T02:30:05;12.25;;;8.88;;
27313;SDS011;14800;48.174;9.798;2022-10-31T02:38:14;13.90;;;8.65;;
27313;SDS011;14800;48.174;9.798;2022-10-31T02:49:15;33.83;;;8.27;;
27313;SDS011;14800;48.174;9.798;2022-10-31T02:51:44;19.63;;;8.48;;
27313;SDS011;14800;48.174;9.798;2022-10-31T02:54:22;27.02;;;10.60;;
27313;SDS011;14800;48.174;9.798;2022-10-31T02:56:50;20.85;;;9.45;;
27313;SDS011;14800;48.174;9.798;2022-10-31T02:59:18;17.58;;;8.95;;
27313;SDS011;14800;48.174;9.798;2022-10-31T03:10:17;18.27;;;9.65;;
27313;SDS011;14800;48.174;9.798;2022-10-31T03:13:09;16.95;;;9.98;;
27313;SDS011;14800;48.174;9.798;2022-10-31T03:20:59;18.75;;;9.60;;
27313;SDS011;14800;48.174;9.798;2022-10-31T03:23:30;18.70;;;9.85;;
27313;SDS011;14800;48.174;9.798;2022-10-31T03:25:58;13.25;;;9.13;;
27313;SDS011;14800;48.174;9.798;2022-10-31T03:28:30;10.18;;;8.68;;
27313;SDS011;14800;48.174;9.798;2022-10-31T03:31:03;15.40;;;8.90;;
27313;SDS011;14800;48.174;9.798;2022-10-31T03:33:31;13.30;;;8.50;;
27313;SDS011;14800;48.174;9.798;2022-10-31T03:36:00;15.68;;;9.52;;
27313;SDS011;14800;48.174;9.798;2022-10-31T03:38:29;16.13;;;8.57;;
27313;SDS011;14800;48.174;9.798;2022-10-31T03:40:56;26.80;;;9.95;;
27313;SDS011;14800;48.174;9.798;2022-10-31T03:43:25;14.13;;;9.25;;
27313;SDS011;14800;48.174;9.798;2022-10-31T03:45:55;15.27;;;10.10;;
27313;SDS011;14800;48.174;9.798;2022-10-31T03:48:21;14.00;;;9.50;;
27313;SDS011;14800;48.174;9.798;2022-10-31T03:53:33;20.37;;;14.23;;
27313;SDS011;14800;48.174;9.798;2022-10-31T03:56:15;15.50;;;11.82;;
27313;SDS011;14800;48.174;9.798;2022-10-31T03:58:52;19.83;;;13.07;;
27313;SDS011;14800;48.174;9.798;2022-10-31T04:01:23;44.08;;;26.20;;
27313;SDS011;14800;48.174;9.798;2022-10-31T04:03:50;71.38;;;36.22;;
27313;SDS011;14800;48.174;9.798;2022-10-31T04:06:17;49.88;;;27.65;;
27313;SDS011;14800;48.174;9.798;2022-10-31T04:08:46;45.30;;;25.42;;
27313;SDS011;14800;48.174;9.798;2022-10-31T04:11:16;68.68;;;35.20;;
27313;SDS011;14800;48.174;9.798;2022-10-31T04:13:46;87.32;;;41.55;;
27313;SDS011;14800;48.174;9.798;2022-10-31T04:16:13;77.75;;;40.33;;
27313;SDS011;14800;48.174;9.798;2022-10-31T04:18:41;72.13;;;39.53;;
27313;SDS011;14800;48.174;9.798;2022-10-31T04:21:07;71.38;;;29.17;;
27313;SDS011;14800;48.174;9.798;2022-10-31T04:23:33;50.47;;;23.88;;
27313;SDS011;14800;48.174;9.798;2022-10-31T04:26:00;50.50;;;24.00;;
27313;SDS011;14800;48.174;9.798;2022-10-31T04:28:26;39.33;;;21.63;;
27313;SDS011;14800;48.174;9.798;2022-10-31T04:30:52;28.95;;;18.23;;
27313;SDS011;14800;48.174;9.798;2022-10-31T04:33:17;28.30;;;17.77;;
27313;SDS011;14800;48.174;9.798;2022-10-31T04:35:43;27.98;;;18.23;;
27313;SDS011;14800;48.174;9.798;2022-10-31T04:38:09;18.45;;;13.32;;
27313;SDS011;14800;48.174;9.798;2022-10-31T04:40:34;19.08;;;12.73;;
27313;SDS011;14800;48.174;9.798;2022-10-31T04:43:00;23.45;;;12.00;;
27313;SDS011;14800;48.174;9.798;2022-10-31T04:45:25;14.25;;;11.23;;
27313;SDS011;14800;48.174;9.798;2022-10-31T04:47:51;13.50;;;10.68;;
27313;SDS011;14800;48.174;9.798;2022-10-31T04:50:17;14.05;;;10.98;;
27313;SDS011;14800;48.174;9.798;2022-10-31T04:52:42;15.93;;;11.65;;
27313;SDS011;14800;48.174;9.798;2022-10-31T04:55:09;14.43;;;11.20;;
27313;SDS011;14800;48.174;9.798;2022-10-31T04:57:46;17.33;;;11.30;;
27313;SDS011;14800;48.174;9.798;2022-10-31T05:00:13;20.15;;;12.27;;
27313;SDS011;14800;48.174;9.798;2022-10-31T05:02:51;22.85;;;11.50;;
27313;SDS011;14800;48.174;9.798;2022-10-31T05:05:19;21.98;;;10.77;;
27313;SDS011;14800;48.174;9.798;2022-10-31T05:07:47;12.23;;;10.75;;
27313;SDS011;14800;48.174;9.798;2022-10-31T05:10:15;20.00;;;10.93;;
27313;SDS011;14800;48.174;9.798;2022-10-31T05:12:48;13.95;;;10.13;;
27313;SDS011;14800;48.174;9.798;2022-10-31T05:15:19;14.98;;;10.70;;
27313;SDS011;14800;48.174;9.798;2022-10-31T05:17:46;15.95;;;10.43;;
27313;SDS011;14800;48.174;9.798;2022-10-31T05:20:13;27.27;;;13.52;;
27313;SDS011;14800;48.174;9.798;2022-10-31T05:22:46;19.52;;;11.63;;
27313;SDS011;14800;48.174;9.798;2022-10-31T05:25:13;25.27;;;13.80;;
27313;SDS011;14800;48.174;9.798;2022-10-31T05:27:40;12.98;;;10.75;;
27313;SDS011;14800;48.174;9.798;2022-10-31T05:30:10;14.63;;;9.80;;
27313;SDS011;14800;48.174;9.798;2022-10-31T05:32:38;23.88;;;13.48;;
27313;SDS011;14800;48.174;9.798;2022-10-31T05:35:04;21.88;;;12.88;;
27313;SDS011;14800;48.174;9.798;2022-10-31T05:37:33;21.95;;;12.63;;
27313;SDS011;14800;48.174;9.798;2022-10-31T05:39:59;37.50;;;9.98;;
27313;SDS011;14800;48.174;9.798;2022-10-31T05:42:25;36.08;;;10.30;;
27313;SDS011;14800;48.174;9.798;2022-10-31T05:44:50;31.83;;;12.43;;
27313;SDS011;14800;48.174;9.798;2022-10-31T05:47:16;36.25;;;10.73;;
27313;SDS011;14800;48.174;9.798;2022-10-31T05:49:41;11.32;;;9.10;;
27313;SDS011;14800;48.174;9.798;2022-10-31T05:52:07;11.63;;;9.60;;
27313;SDS011;14800;48.174;9.798;2022-10-31T05:54:32;10.70;;;9.60;;
27313;SDS011;14800;48.174;9.798;2022-10-31T05:56:58;11.57;;;10.38;;
27313;SDS011;14800;48.174;9.798;2022-10-31T05:59:23;34.35;;;18.52;;
27313;SDS011;14800;48.174;9.798;2022-10-31T06:01:49;22.42;;;15.77;;
27313;SDS011;14800;48.174;9.798;2022-10-31T06:04:14;26.58;;;16.25;;
27313;SDS011;14800;48.174;9.798;2022-10-31T06:06:40;23.65;;;15.95;;
27313;SDS011;14800;48.174;9.798;2022-10-31T06:09:06;23.55;;;15.05;;
27313;SDS011;14800;48.174;9.798;2022-10-31T06:11:31;22.90;;;15.10;;
27313;SDS011;14800;48.174;9.798;2022-10-31T06:13:57;20.67;;;15.02;;
27313;SDS011;14800;48.174;9.798;2022-10-31T06:16:22;16.80;;;13.30;;
27313;SDS011;14800;48.174;9.798;2022-10-31T06:18:48;15.57;;;11.77;;
27313;SDS011;14800;48.174;9.798;2022-10-31T06:21:13;17.10;;;11.05;;
27313;SDS011;14800;48.174;9.798;2022-10-31T06:23:39;11.25;;;10.05;;
27313;SDS011;14800;48.174;9.798;2022-10-31T06:26:05;13.80;;;10.20;;
27313;SDS011;14800;48.174;9.798;2022-10-31T06:28:30;13.05;;;10.10;;
27313;SDS011;14800;48.174;9.798;2022-10-31T06:30:56;13.98;;;10.20;;
27313;SDS011;14800;48.174;9.798;2022-10-31T06:33:21;14.50;;;10.88;;
27313;SDS011;14800;48.174;9.798;2022-10-31T06:35:47;18.30;;;11.38;;
27313;SDS011;14800;48.174;9.798;2022-10-31T06:38:13;14.63;;;9.90;;
27313;SDS011;14800;48.174;9.798;2022-10-31T06:40:39;19.23;;;10.38;;
27313;SDS011;14800;48.174;9.798;2022-10-31T06:43:04;11.35;;;10.07;;
27313;SDS011;14800;48.174;9.798;2022-10-31T06:45:30;12.40;;;10.07;;
27313;SDS011;14800;48.174;9.798;2022-10-31T06:47:56;15.27;;;11.38;;
27313;SDS011;14800;48.174;9.798;2022-10-31T06:50:22;21.63;;;14.65;;
27313;SDS011;14800;48.174;9.798;2022-10-31T06:52:54;27.23;;;15.82;;
27313;SDS011;14800;48.174;9.798;2022-10-31T06:55:22;43.27;;;20.53;;
27313;SDS011;14800;48.174;9.798;2022-10-31T06:57:52;38.03;;;20.55;;
27313;SDS011;14800;48.174;9.798;2022-10-31T07:00:22;32.47;;;20.17;;
27313;SDS011;14800;48.174;9.798;2022-10-31T07:02:55;35.25;;;17.17;;
27313;SDS011;14800;48.174;9.798;2022-10-31T07:05:22;17.88;;;13.70;;
27313;SDS011;14800;48.174;9.798;2022-10-31T07:07:51;22.60;;;14.73;;
27313;SDS011;14800;48.174;9.798;2022-10-31T07:10:18;21.77;;;15.63;;
27313;SDS011;14800;48.174;9.798;2022-10-31T07:12:43;21.02;;;15.55;;
27313;SDS011;14800;48.174;9.798;2022-10-31T07:15:09;23.77;;;14.38;;
27313;SDS011;14800;48.174;9.798;2022-10-31T07:17:34;19.30;;;12.57;;
27313;SDS011;14800;48.174;9.798;2022-10-31T07:20:00;17.88;;;11.30;;
27313;SDS011;14800;48.174;9.798;2022-10-31T07:22:31;15.55;;;11.30;;
27313;SDS011;14800;48.174;9.798;2022-10-31T07:27:26;18.55;;;8.75;;
27313;SDS011;14800;48.174;9.798;2022-10-31T07:29:52;42.65;;;9.18;;
27313;SDS011;14800;48.174;9.798;2022-10-31T07:32:17;36.65;;;8.13;;
27313;SDS011;14800;48.174;9.798;2022-10-31T07:34:43;20.40;;;8.88;;
27313;SDS011;14800;48.174;9.798;2022-10-31T07:37:08;19.40;;;8.75;;
27313;SDS011;14800;48.174;9.798;2022-10-31T07:39:34;23.80;;;9.13;;
27313;SDS011;14800;48.174;9.798;2022-10-31T07:41:59;41.65;;;9.13;;
27313;SDS011;14800;48.174;9.798;2022-10-31T07:44:25;33.03;;;9.13;;
27313;SDS011;14800;48.174;9.798;2022-10-31T07:46:51;21.92;;;9.40;;
27313;SDS011;14800;48.174;9.798;2022-10-31T07:49:16;17.65;;;9.13;;
27313;SDS011;14800;48.174;9.798;2022-10-31T07:51:42;30.77;;;10.65;;
27313;SDS011;14800;48.174;9.798;2022-10-31T07:54:07;38.45;;;10.07;;
27313;SDS011;14800;48.174;9.798;2022-10-31T07:56:33;29.15;;;10.35;;
27313;SDS011;14800;48.174;9.798;2022-10-31T07:58:58;28.92;;;9.55;;
27313;SDS011;14800;48.174;9.798;2022-10-31T08:01:24;13.95;;;9.60;;
27313;SDS011;14800;48.174;9.798;2022-10-31T08:03:49;14.35;;;9.35;;
27313;SDS011;14800;48.174;9.798;2022-10-31T08:06:15;22.15;;;9.63;;
27313;SDS011;14800;48.174;9.798;2022-10-31T08:08:42;37.25;;;10.45;;
27313;SDS011;14800;48.174;9.798;2022-10-31T08:11:07;42.25;;;11.07;;
27313;SDS011;14800;48.174;9.798;2022-10-31T08:13:33;20.25;;;10.13;;
27313;SDS011;14800;48.174;9.798;2022-10-31T08:15:58;16.42;;;9.90;;
27313;SDS011;14800;48.174;9.798;2022-10-31T08:18:28;18.50;;;9.32;;
27313;SDS011;14800;48.174;9.798;2022-10-31T08:20:54;13.05;;;8.98;;
27313;SDS011;14800;48.174;9.798;2022-10-31T08:23:20;15.57;;;8.60;;
27313;SDS011;14800;48.174;9.798;2022-10-31T08:25:46;16.00;;;8.93;;
27313;SDS011;14800;48.174;9.798;2022-10-31T08:28:14;11.85;;;8.30;;
27313;SDS011;14800;48.174;9.798;2022-10-31T08:30:40;19.08;;;9.32;;
27313;SDS011;14800;48.174;9.798;2022-10-31T08:33:11;9.75;;;8.75;;
27313;SDS011;14800;48.174;9.798;2022-10-31T08:35:40;11.27;;;8.93;;
27313;SDS011;14800;48.174;9.798;2022-10-31T08:38:07;15.18;;;9.23;;
27313;SDS011;14800;48.174;9.798;2022-10-31T08:40:34;10.32;;;8.70;;
27313;SDS011;14800;48.174;9.798;2022-10-31T08:43:04;16.20;;;8.43;;
27313;SDS011;14800;48.174;9.798;2022-10-31T08:45:32;10.38;;;9.10;;
27313;SDS011;14800;48.174;9.798;2022-10-31T08:48:02;12.98;;;9.40;;
27313;SDS011;14800;48.174;9.798;2022-10-31T08:50:31;11.30;;;8.57;;
27313;SDS011;14800;48.174;9.798;2022-10-31T08:53:17;13.80;;;9.27;;
27313;SDS011;14800;48.174;9.798;2022-10-31T08:55:44;12.30;;;9.40;;
27313;SDS011;14800;48.174;9.798;2022-10-31T08:58:11;10.40;;;8.95;;
27313;SDS011;14800;48.174;9.798;2022-10-31T09:00:38;13.82;;;9.40;;
27313;SDS011;14800;48.174;9.798;2022-10-31T09:03:05;11.52;;;8.90;;
27313;SDS011;14800;48.174;9.798;2022-10-31T09:05:33;12.45;;;9.40;;
27313;SDS011;14800;48.174;9.798;2022-10-31T09:08:00;11.02;;;8.93;;
27313;SDS011;14800;48.174;9.798;2022-10-31T09:10:27;15.18;;;11.30;;
27313;SDS011;14800;48.174;9.798;2022-10-31T09:12:55;12.65;;;11.07;;
27313;SDS011;14800;48.174;9.798;2022-10-31T09:15:25;14.13;;;10.63;;
27313;SDS011;14800;48.174;9.798;2022-10-31T09:17:52;12.05;;;10.63;;
27313;SDS011;14800;48.174;9.798;2022-10-31T09:20:18;14.73;;;11.18;;
27313;SDS011;14800;48.174;9.798;2022-10-31T09:22:44;16.73;;;11.32;;
27313;SDS011;14800;48.174;9.798;2022-10-31T09:25:09;15.63;;;9.88;;
27313;SDS011;14800;48.174;9.798;2022-10-31T09:27:35;13.20;;;9.50;;
27313;SDS011;14800;48.174;9.798;2022-10-31T09:30:01;13.02;;;9.38;;
27313;SDS011;14800;48.174;9.798;2022-10-31T09:32:27;17.10;;;9.25;;
27313;SDS011;14800;48.174;9.798;2022-10-31T09:34:53;12.50;;;8.68;;
27313;SDS011;14800;48.174;9.798;2022-10-31T09:37:18;13.55;;;9.68;;
27313;SDS011;14800;48.174;9.798;2022-10-31T09:39:44;17.80;;;13.23;;
27313;SDS011;14800;48.174;9.798;2022-10-31T09:45:27;14.15;;;11.93;;
27313;SDS011;14800;48.174;9.798;2022-10-31T09:56:23;13.65;;;8.55;;
27313;SDS011;14800;48.174;9.798;2022-10-31T09:58:52;11.27;;;8.38;;
27313;SDS011;14800;48.174;9.798;2022-10-31T10:04:14;9.52;;;8.38;;
27313;SDS011;14800;48.174;9.798;2022-10-31T10:06:44;11.25;;;8.27;;
27313;SDS011;14800;48.174;9.798;2022-10-31T10:09:14;8.95;;;8.05;;
27313;SDS011;14800;48.174;9.798;2022-10-31T10:11:44;10.02;;;8.23;;
27313;SDS011;14800;48.174;9.798;2022-10-31T10:19:34;11.60;;;8.07;;
27313;SDS011;14800;48.174;9.798;2022-10-31T10:25:20;9.15;;;7.03;;
27313;SDS011;14800;48.174;9.798;2022-10-31T10:30:39;13.25;;;8.20;;
27313;SDS011;14800;48.174;9.798;2022-10-31T10:33:46;12.50;;;8.48;;
27313;SDS011;14800;48.174;9.798;2022-10-31T10:36:28;11.52;;;7.38;;
27313;SDS011;14800;48.174;9.798;2022-10-31T10:39:02;14.10;;;7.63;;
27313;SDS011;14800;48.174;9.798;2022-10-31T10:41:34;16.65;;;9.35;;
27313;SDS011;14800;48.174;9.798;2022-10-31T10:44:00;15.27;;;9.15;;
27313;SDS011;14800;48.174;9.798;2022-10-31T11:00:15;20.33;;;12.82;;
27313;SDS011;14800;48.174;9.798;2022-10-31T11:02:43;23.67;;;13.40;;
27313;SDS011;14800;48.174;9.798;2022-10-31T11:05:13;22.15;;;13.88;;
27313;SDS011;14800;48.174;9.798;2022-10-31T11:07:59;23.50;;;15.90;;
27313;SDS011;14800;48.174;9.798;2022-10-31T11:10:25;22.77;;;16.13;;
27313;SDS011;14800;48.174;9.798;2022-10-31T11:18:32;22.17;;;16.40;;
27313;SDS011;14800;48.174;9.798;2022-10-31T11:21:02;25.98;;;16.60;;
27313;SDS011;14800;48.174;9.798;2022-10-31T11:23:29;25.77;;;16.58;;
27313;SDS011;14800;48.174;9.798;2022-10-31T11:25:56;24.38;;;17.00;;
27313;SDS011;14800;48.174;9.798;2022-10-31T11:28:30;26.70;;;18.05;;
27313;SDS011;14800;48.174;9.798;2022-10-31T11:31:00;25.42;;;17.40;;
27313;SDS011;14800;48.174;9.798;2022-10-31T11:33:32;29.85;;;18.77;;
27313;SDS011;14800;48.174;9.798;2022-10-31T11:36:02;27.50;;;18.95;;
27313;SDS011;14800;48.174;9.798;2022-10-31T11:38:40;24.75;;;17.30;;
27313;SDS011;14800;48.174;9.798;2022-10-31T11:43:46;28.80;;;17.45;;
27313;SDS011;14800;48.174;9.798;2022-10-31T11:46:20;24.83;;;16.80;;
27313;SDS011;14800;48.174;9.798;2022-10-31T11:48:49;25.58;;;15.65;;
27313;SDS011;14800;48.174;9.798;2022-10-31T11:51:24;21.95;;;14.57;;
27313;SDS011;14800;48.174;9.798;2022-10-31T11:53:55;20.40;;;14.07;;
27313;SDS011;14800;48.174;9.798;2022-10-31T11:56:23;19.50;;;13.57;;
27313;SDS011;14800;48.174;9.798;2022-10-31T11:59:01;21.92;;;13.95;;
27313;SDS011;14800;48.174;9.798;2022-10-31T12:01:30;21.13;;;13.95;;
27313;SDS011;14800;48.174;9.798;2022-10-31T12:04:07;21.67;;;14.82;;
27313;SDS011;14800;48.174;9.798;2022-10-31T12:06:38;21.13;;;15.60;;
27313;SDS011;14800;48.174;9.798;2022-10-31T12:09:17;22.30;;;15.70;;
27313;SDS011;14800;48.174;9.798;2022-10-31T12:11:58;24.02;;;14.75;;
27313;SDS011;14800;48.174;9.798;2022-10-31T12:17:09;20.60;;;14.02;;
27313;SDS011;14800;48.174;9.798;2022-10-31T12:30:24;22.33;;;14.73;;
27313;SDS011;14800;48.174;9.798;2022-10-31T12:35:45;18.63;;;14.07;;
27313;SDS011;14800;48.174;9.798;2022-10-31T12:44:12;18.42;;;13.95;;
27313;SDS011;14800;48.174;9.798;2022-10-31T12:49:20;21.95;;;13.30;;
27313;SDS011;14800;48.174;9.798;2022-10-31T12:57:40;17.45;;;11.90;;
27313;SDS011;14800;48.174;9.798;2022-10-31T13:00:16;25.60;;;13.88;;
27313;SDS011;14800;48.174;9.798;2022-10-31T13:05:31;20.42;;;13.00;;
27313;SDS011;14800;48.174;9.798;2022-10-31T13:08:03;21.23;;;13.35;;
27313;SDS011;14800;48.174;9.798;2022-10-31T13:10:31;25.13;;;13.70;;
27313;SDS011;14800;48.174;9.798;2022-10-31T13:13:15;18.55;;;13.23;;
27313;SDS011;14800;48.174;9.798;2022-10-31T13:16:01;19.70;;;12.80;;
27313;SDS011;14800;48.174;9.798;2022-10-31T13:18:35;19.75;;;12.95;;
27313;SDS011;14800;48.174;9.798;2022-10-31T13:21:26;17.05;;;13.48;;
27313;SDS011;14800;48.174;9.798;2022-10-31T13:24:01;25.98;;;13.52;;
27313;SDS011;14800;48.174;9.798;2022-10-31T13:26:36;24.77;;;13.32;;
27313;SDS011;14800;48.174;9.798;2022-10-31T13:30:04;17.23;;;12.45;;
27313;SDS011;14800;48.174;9.798;2022-10-31T13:32:07;22.98;;;12.15;;
27313;SDS011;14800;48.174;9.798;2022-10-31T13:34:34;17.08;;;11.77;;
27313;SDS011;14800;48.174;9.798;2022-10-31T13:37:06;16.42;;;11.48;;
27313;SDS011;14800;48.174;9.798;2022-10-31T13:42:20;17.02;;;11.35;;
27313;SDS011;14800;48.174;9.798;2022-10-31T13:45:12;17.90;;;11.63;;
27313;SDS011;14800;48.174;9.798;2022-10-31T13:47:40;16.58;;;11.27;;
27313;SDS011;14800;48.174;9.798;2022-10-31T13:52:50;15.65;;;11.68;;
27313;SDS011;14800;48.174;9.798;2022-10-31T13:55:34;20.10;;;12.93;;
27313;SDS011;14800;48.174;9.798;2022-10-31T13:58:22;21.60;;;13.30;;
27313;SDS011;14800;48.174;9.798;2022-10-31T14:03:43;19.45;;;13.50;;
27313;SDS011;14800;48.174;9.798;2022-10-31T14:06:10;23.33;;;14.65;;
27313;SDS011;14800;48.174;9.798;2022-10-31T14:08:37;19.52;;;14.20;;
27313;SDS011;14800;48.174;9.798;2022-10-31T14:11:07;18.70;;;13.55;;
27313;SDS011;14800;48.174;9.798;2022-10-31T14:13:44;19.63;;;13.32;;
27313;SDS011;14800;48.174;9.798;2022-10-31T14:16:23;19.48;;;13.02;;
27313;SDS011;14800;48.174;9.798;2022-10-31T14:18:51;21.67;;;13.45;;
27313;SDS011;14800;48.174;9.798;2022-10-31T14:23:54;18.73;;;12.95;;
27313;SDS011;14800;48.174;9.798;2022-10-31T14:28:56;22.25;;;14.55;;
27313;SDS011;14800;48.174;9.798;2022-10-31T14:34:42;22.13;;;13.23;;
27313;SDS011;14800;48.174;9.798;2022-10-31T14:40:12;18.23;;;11.60;;
27313;SDS011;14800;48.174;9.798;2022-10-31T14:51:16;17.58;;;11.98;;
27313;SDS011;14800;48.174;9.798;2022-10-31T14:53:50;17.60;;;11.95;;
27313;SDS011;14800;48.174;9.798;2022-10-31T14:56:20;21.17;;;11.95;;
27313;SDS011;14800;48.174;9.798;2022-10-31T14:58:51;22.33;;;12.15;;
27313;SDS011;14800;48.174;9.798;2022-10-31T15:01:34;18.88;;;11.40;;
27313;SDS011;14800;48.174;9.798;2022-10-31T15:04:09;17.10;;;12.13;;
27313;SDS011;14800;48.174;9.798;2022-10-31T15:06:44;17.50;;;12.25;;
27313;SDS011;14800;48.174;9.798;2022-10-31T15:11:50;15.73;;;11.40;;
27313;SDS011;14800;48.174;9.798;2022-10-31T15:14:23;16.13;;;12.20;;
27313;SDS011;14800;48.174;9.798;2022-10-31T15:16:51;20.45;;;12.85;;
27313;SDS011;14800;48.174;9.798;2022-10-31T15:19:21;20.10;;;12.10;;
27313;SDS011;14800;48.174;9.798;2022-10-31T15:21:49;19.75;;;12.48;;
27313;SDS011;14800;48.174;9.798;2022-10-31T15:24:16;18.98;;;12.55;;
27313;SDS011;14800;48.174;9.798;2022-10-31T15:26:51;20.83;;;12.80;;
27313;SDS011;14800;48.174;9.798;2022-10-31T15:29:19;19.00;;;12.48;;
27313;SDS011;14800;48.174;9.798;2022-10-31T15:31:54;22.98;;;12.10;;
27313;SDS011;14800;48.174;9.798;2022-10-31T15:37:17;18.17;;;11.57;;
27313;SDS011;14800;48.174;9.798;2022-10-31T15:39:44;18.15;;;11.02;;
27313;SDS011;14800;48.174;9.798;2022-10-31T15:42:16;18.73;;;11.27;;
27313;SDS011;14800;48.174;9.798;2022-10-31T15:44:44;16.42;;;11.32;;
27313;SDS011;14800;48.174;9.798;2022-10-31T15:47:18;14.80;;;11.30;;
27313;SDS011;14800;48.174;9.798;2022-10-31T15:49:50;17.38;;;11.48;;
27313;SDS011;14800;48.174;9.798;2022-10-31T15:54:57;17.35;;;11.95;;
27313;SDS011;14800;48.174;9.798;2022-10-31T15:57:25;19.10;;;12.20;;
27313;SDS011;14800;48.174;9.798;2022-10-31T15:59:52;15.05;;;11.40;;
27313;SDS011;14800;48.174;9.798;2022-10-31T16:02:22;16.50;;;11.88;;
27313;SDS011;14800;48.174;9.798;2022-10-31T16:04:56;17.70;;;11.30;;
27313;SDS011;14800;48.174;9.798;2022-10-31T16:07:26;18.00;;;11.68;;
27313;SDS011;14800;48.174;9.798;2022-10-31T16:09:57;20.80;;;11.75;;
27313;SDS011;14800;48.174;9.798;2022-10-31T16:12:23;14.65;;;10.50;;
27313;SDS011;14800;48.174;9.798;2022-10-31T16:14:54;24.42;;;12.02;;
27313;SDS011;14800;48.174;9.798;2022-10-31T16:17:21;21.83;;;12.75;;
27313;SDS011;14800;48.174;9.798;2022-10-31T16:19:53;15.15;;;12.68;;
27313;SDS011;14800;48.174;9.798;2022-10-31T16:22:34;19.23;;;12.10;;
27313;SDS011;14800;48.174;9.798;2022-10-31T16:25:04;18.65;;;11.68;;
27313;SDS011;14800;48.174;9.798;2022-10-31T16:27:31;14.18;;;11.57;;
27313;SDS011;14800;48.174;9.798;2022-10-31T16:29:59;15.80;;;11.93;;
27313;SDS011;14800;48.174;9.798;2022-10-31T16:32:33;17.35;;;12.90;;
27313;SDS011;14800;48.174;9.798;2022-10-31T16:35:02;15.70;;;11.85;;
27313;SDS011;14800;48.174;9.798;2022-10-31T16:37:43;18.50;;;12.30;;
27313;SDS011;14800;48.174;9.798;2022-10-31T16:40:10;17.45;;;11.95;;
27313;SDS011;14800;48.174;9.798;2022-10-31T16:42:38;16.48;;;12.07;;
27313;SDS011;14800;48.174;9.798;2022-10-31T16:45:04;16.60;;;11.48;;
27313;SDS011;14800;48.174;9.798;2022-10-31T16:47:31;16.20;;;11.60;;
27313;SDS011;14800;48.174;9.798;2022-10-31T16:49:57;17.70;;;11.30;;
27313;SDS011;14800;48.174;9.798;2022-10-31T16:52:24;19.73;;;12.52;;
27313;SDS011;14800;48.174;9.798;2022-10-31T16:54:51;20.30;;;13.75;;
27313;SDS011;14800;48.174;9.798;2022-10-31T16:57:20;22.88;;;15.13;;
27313;SDS011;14800;48.174;9.798;2022-10-31T16:59:51;35.45;;;17.55;;
27313;SDS011;14800;48.174;9.798;2022-10-31T17:02:18;34.10;;;18.40;;
27313;SDS011;14800;48.174;9.798;2022-10-31T17:04:45;27.75;;;17.85;;
27313;SDS011;14800;48.174;9.798;2022-10-31T17:07:10;28.90;;;16.98;;
27313;SDS011;14800;48.174;9.798;2022-10-31T17:09:36;31.13;;;16.83;;
27313;SDS011;14800;48.174;9.798;2022-10-31T17:12:01;22.75;;;16.35;;
27313;SDS011;14800;48.174;9.798;2022-10-31T17:14:28;24.15;;;16.98;;
27313;SDS011;14800;48.174;9.798;2022-10-31T17:16:53;25.98;;;18.17;;
27313;SDS011;14800;48.174;9.798;2022-10-31T17:19:19;32.85;;;21.30;;